Time;durP1;ratioP1;P1;durP2;ratioP2;P2;SDS_P1;SDS_P2;PMS_P1;PMS_P2;Temp;Humidity;BMP_temperature;BMP_pressure;BME280_temperature;BME280_humidity;BME280_pressure;Samples;Min_cycle;Max_cycle;Signal;HPM_P1;HPM_P2
2022/01/30 00:00:38;;;;;;;11.30;3.62;;;;;;;0.28;100.00;100192.69;1433981;91;21704;-85
2022/01/30 00:03:05;;;;;;;10.82;4.70;;;;;;;0.28;100.00;100177.91;1426836;91;21415;-85
2022/01/30 00:05:34;;;;;;;10.87;4.60;;;;;;;0.29;100.00;100191.31;1418390;89;21511;-86
2022/01/30 00:07:59;;;;;;;9.77;4.63;;;;;;;0.29;100.00;100158.78;1425062;91;23244;-86
2022/01/30 00:10:25;;;;;;;14.78;6.67;;;;;;;0.30;100.00;100161.75;1430554;91;22178;-84
2022/01/30 00:12:58;;;;;;;8.60;4.47;;;;;;;0.32;100.00;100145.58;1435796;91;22441;-83
2022/01/30 00:18:54;;;;;;;19.80;5.20;;;;;;;0.35;100.00;100159.72;1389778;94;21673;-84
2022/01/30 00:20:35;;;;;;;14.25;6.40;;;;;;;0.38;100.00;100167.35;1384859;93;22481;-85
2022/01/30 00:23:11;;;;;;;10.33;4.53;;;;;;;0.40;100.00;100173.31;1426367;91;23226;-84
2022/01/30 00:25:43;;;;;;;7.47;3.43;;;;;;;0.40;100.00;100170.71;1427672;90;22270;-85
2022/01/30 00:28:07;;;;;;;18.20;6.85;;;;;;;0.39;100.00;100185.94;1424700;91;22204;-84
2022/01/30 00:30:34;;;;;;;12.23;4.00;;;;;;;0.43;100.00;100178.78;1425963;90;22399;-85
2022/01/30 00:33:02;;;;;;;8.97;4.17;;;;;;;0.45;100.00;100192.09;1476525;91;22103;-85
2022/01/30 00:35:29;;;;;;;23.30;5.40;;;;;;;0.48;100.00;100176.75;1425253;91;21874;-86
2022/01/30 00:37:56;;;;;;;7.50;3.53;;;;;;;0.51;100.00;100171.84;1426345;90;22363;-87
2022/01/30 00:40:22;;;;;;;15.85;5.33;;;;;;;0.53;100.00;100164.31;1423278;91;21777;-86
2022/01/30 00:42:48;;;;;;;13.43;4.90;;;;;;;0.54;100.00;100154.73;1424557;91;22539;-86
2022/01/30 00:45:14;;;;;;;12.40;3.90;;;;;;;0.51;100.00;100171.36;1428859;91;21688;-85
2022/01/30 00:47:41;;;;;;;17.45;4.67;;;;;;;0.53;100.00;100158.27;1435419;90;22672;-85
2022/01/30 00:50:08;;;;;;;6.70;3.97;;;;;;;0.52;100.00;100129.23;1448010;90;21494;-85
2022/01/30 00:52:34;;;;;;;7.53;3.80;;;;;;;0.50;100.00;100125.91;1442916;90;21695;-87
2022/01/30 00:55:00;;;;;;;10.93;4.40;;;;;;;0.51;100.00;100117.98;1444158;90;21686;-86
2022/01/30 00:57:27;;;;;;;15.30;4.30;;;;;;;0.51;100.00;100111.94;1442677;90;22659;-86
2022/01/30 00:59:53;;;;;;;10.27;4.30;;;;;;;0.50;100.00;100085.54;1439518;90;21667;-86
2022/01/30 01:02:19;;;;;;;7.37;3.20;;;;;;;0.50;100.00;100079.03;1425085;90;21915;-87
2022/01/30 01:04:45;;;;;;;8.53;3.90;;;;;;;0.44;100.00;100056.33;1441539;89;22086;-87
2022/01/30 01:07:18;;;;;;;11.63;3.63;;;;;;;0.44;100.00;100051.13;1438663;89;23110;-87
2022/01/30 01:09:41;;;;;;;8.90;4.42;;;;;;;0.43;100.00;100042.09;1419985;92;21962;-86
2022/01/30 01:25:53;;;;;;;6.83;3.63;;;;;;;0.54;100.00;100033.63;1421808;91;22465;-84
2022/01/30 01:28:20;;;;;;;6.10;3.33;;;;;;;0.54;100.00;100021.45;1420095;91;23115;-84
2022/01/30 01:30:46;;;;;;;10.47;3.43;;;;;;;0.53;100.00;100025.46;1421512;92;21667;-85
2022/01/30 01:33:13;;;;;;;7.40;3.80;;;;;;;0.58;100.00;100013.00;1401393;92;21770;-85
2022/01/30 01:35:40;;;;;;;14.03;4.20;;;;;;;0.59;100.00;100019.41;1425786;91;21726;-86
2022/01/30 01:38:11;;;;;;;11.30;3.30;;;;;;;0.64;100.00;100012.15;1422139;91;21548;-84
2022/01/30 01:40:34;;;;;;;14.23;3.97;;;;;;;0.64;100.00;100026.95;1418649;89;21744;-84
2022/01/30 01:43:01;;;;;;;9.53;4.17;;;;;;;0.65;100.00;99999.95;1461194;88;22253;-87
2022/01/30 01:45:34;;;;;;;7.50;3.23;;;;;;;0.66;100.00;99979.05;1465119;88;21405;-86
2022/01/30 01:47:59;;;;;;;13.70;5.17;;;;;;;0.69;99.83;99970.17;1458963;89;21823;-87
2022/01/30 01:50:38;;;;;;;10.90;3.93;;;;;;;0.71;99.35;99965.72;1417146;89;24025;-87
2022/01/30 01:52:55;;;;;;;15.75;3.83;;;;;;;0.71;99.11;99960.50;1404193;92;21786;-86
2022/01/30 01:55:21;;;;;;;12.73;2.97;;;;;;;0.72;98.67;99961.34;1419014;89;21427;-86
2022/01/30 01:57:48;;;;;;;15.57;4.03;;;;;;;0.74;98.21;99949.89;1402351;92;21746;-86
2022/01/30 02:00:15;;;;;;;15.43;5.30;;;;;;;0.79;97.35;99929.60;1404442;91;21630;-87
2022/01/30 02:02:41;;;;;;;12.07;3.43;;;;;;;0.78;97.23;99918.83;1414183;92;22271;-86
2022/01/30 02:05:09;;;;;;;15.67;4.97;;;;;;;0.77;96.94;99917.13;1411000;91;21873;-85
2022/01/30 02:10:23;;;;;;;8.77;2.80;;;;;;;0.85;96.12;99937.50;1410944;92;21970;-86
2022/01/30 02:12:49;;;;;;;11.20;4.77;;;;;;;0.86;95.62;99902.68;1411405;91;21982;-87
2022/01/30 02:15:32;;;;;;;11.93;4.43;;;;;;;0.88;95.45;99891.23;1410004;92;21708;-87
2022/01/30 02:25:44;;;;;;;10.93;4.00;;;;;;;1.00;93.22;99890.91;1387881;94;21701;-86
2022/01/30 02:28:12;;;;;;;13.28;4.03;;;;;;;1.03;92.97;99893.78;1374029;94;22840;-85
2022/01/30 02:30:41;;;;;;;9.97;3.87;;;;;;;1.04;92.40;99891.56;1389963;94;22909;-85
2022/01/30 02:33:06;;;;;;;16.77;5.53;;;;;;;1.09;90.78;99888.16;1406741;94;21982;-86
2022/01/30 02:35:32;;;;;;;11.73;4.57;;;;;;;1.16;90.97;99880.33;1387940;94;22779;-86
2022/01/30 02:38:00;;;;;;;8.60;3.80;;;;;;;1.17;90.15;99882.45;1386920;94;21952;-85
2022/01/30 02:40:27;;;;;;;11.27;4.30;;;;;;;1.18;90.51;99873.25;1374116;94;21983;-84
2022/01/30 02:42:54;;;;;;;12.63;3.87;;;;;;;1.18;90.54;99868.03;1385519;94;21869;-85
2022/01/30 02:45:24;;;;;;;9.27;4.10;;;;;;;1.19;90.57;99843.63;1372423;94;22657;-86
2022/01/30 02:50:49;;;;;;;14.43;4.97;;;;;;;1.18;90.62;99821.56;1366626;94;21736;-85
2022/01/30 02:53:08;;;;;;;17.00;5.92;;;;;;;1.15;90.32;99806.95;1373565;94;21985;-85
2022/01/30 02:55:34;;;;;;;8.63;4.20;;;;;;;1.19;90.55;99803.70;1350488;95;21626;-87
2022/01/30 02:58:00;;;;;;;10.13;4.60;;;;;;;1.17;90.46;99797.27;1337331;97;22310;-87
2022/01/30 03:00:26;;;;;;;13.20;4.73;;;;;;;1.16;90.63;99803.91;1374157;95;23276;-88
2022/01/30 03:02:52;;;;;;;9.43;4.17;;;;;;;1.14;90.37;99801.38;1343834;97;21891;-89
2022/01/30 03:05:19;;;;;;;12.00;3.53;;;;;;;1.13;90.51;99795.81;1389623;92;22679;-88
2022/01/30 03:07:45;;;;;;;12.57;5.67;;;;;;;1.15;90.42;99786.58;1394645;92;21438;-90
2022/01/30 03:10:11;;;;;;;12.00;4.20;;;;;;;1.12;90.54;99768.06;1404663;92;21763;-89
2022/01/30 03:12:38;;;;;;;18.17;5.93;;;;;;;1.09;90.55;99770.44;1411824;92;21706;-90
2022/01/30 03:15:05;;;;;;;13.13;4.47;;;;;;;1.08;90.46;99760.10;1411019;92;21601;-90
2022/01/30 03:17:32;;;;;;;11.10;4.77;;;;;;;1.07;90.61;99754.53;1409843;92;21760;-87
2022/01/30 03:19:58;;;;;;;12.50;5.80;;;;;;;1.05;90.37;99753.32;1411745;92;22656;-86
2022/01/30 03:22:25;;;;;;;8.70;4.20;;;;;;;1.06;90.55;99746.33;1401980;92;22478;-88
2022/01/30 03:24:51;;;;;;;18.47;5.40;;;;;;;1.05;90.45;99738.16;1412735;92;21909;-88
2022/01/30 03:27:17;;;;;;;11.13;4.87;;;;;;;1.01;90.53;99738.84;1405546;92;21848;-87
2022/01/30 03:29:51;;;;;;;12.50;4.93;;;;;;;1.01;90.55;99730.20;1398270;92;21744;-88
2022/01/30 03:32:14;;;;;;;16.37;5.62;;;;;;;0.99;90.83;99733.36;1391870;93;21677;-87
2022/01/30 03:34:40;;;;;;;14.27;4.87;;;;;;;0.99;90.64;99724.25;1403032;92;21475;-89
2022/01/30 03:37:06;;;;;;;7.87;3.73;;;;;;;1.00;90.83;99738.93;1414807;92;21921;-89
2022/01/30 03:39:32;;;;;;;10.57;3.60;;;;;;;1.01;90.92;99741.92;1402988;92;21476;-89
2022/01/30 03:41:59;;;;;;;12.23;4.10;;;;;;;1.03;91.06;99728.30;1392355;93;21709;-89
2022/01/30 03:44:25;;;;;;;9.33;4.37;;;;;;;1.04;91.11;99720.87;1394012;92;21760;-88
2022/01/30 03:46:53;;;;;;;12.13;4.10;;;;;;;1.06;91.05;99721.57;1405632;92;21602;-89
2022/01/30 03:49:19;;;;;;;20.37;6.20;;;;;;;1.06;91.16;99710.67;1404224;92;22761;-88
2022/01/30 03:51:45;;;;;;;13.37;4.00;;;;;;;1.02;91.16;99712.31;1418033;92;22764;-89
2022/01/30 03:54:11;;;;;;;12.77;3.97;;;;;;;1.01;91.06;99697.63;1418383;91;21673;-88
2022/01/30 03:56:38;;;;;;;11.87;4.73;;;;;;;0.98;91.17;99679.56;1411351;91;21701;-88
2022/01/30 03:59:04;;;;;;;11.57;4.80;;;;;;;0.95;91.11;99681.08;1416520;91;22182;-87
2022/01/30 04:01:29;;;;;;;17.63;5.83;;;;;;;0.87;91.69;99681.14;1417791;91;21688;-90
2022/01/30 04:03:56;;;;;;;12.50;5.10;;;;;;;0.82;92.07;99674.10;1418982;91;21560;-88
2022/01/30 04:06:22;;;;;;;18.40;5.37;;;;;;;0.79;92.04;99671.70;1413658;91;21511;-87
2022/01/30 04:08:49;;;;;;;16.30;5.03;;;;;;;0.75;92.36;99665.05;1408788;92;21573;-88
2022/01/30 04:11:15;;;;;;;13.33;4.57;;;;;;;0.73;92.43;99669.52;1415538;91;21714;-88
2022/01/30 04:13:42;;;;;;;11.10;4.60;;;;;;;0.69;92.55;99660.23;1408902;91;21594;-88
2022/01/30 04:16:10;;;;;;;12.60;3.87;;;;;;;0.67;92.62;99659.52;1412023;91;21689;-86
2022/01/30 04:18:36;;;;;;;12.07;4.20;;;;;;;0.67;93.13;99664.25;1424919;91;21708;-86
2022/01/30 04:21:03;;;;;;;10.00;4.10;;;;;;;0.70;93.20;99661.09;1416776;92;21714;-88
2022/01/30 04:23:29;;;;;;;14.43;4.77;;;;;;;0.74;92.86;99656.84;1413313;92;21614;-85
2022/01/30 04:25:55;;;;;;;23.03;4.33;;;;;;;0.74;92.65;99655.55;1420506;91;21568;-88
2022/01/30 04:28:21;;;;;;;9.33;4.03;;;;;;;0.74;92.55;99658.63;1414113;91;22666;-86
2022/01/30 04:30:48;;;;;;;12.83;4.77;;;;;;;0.78;92.21;99642.70;1419215;92;21614;-88
2022/01/30 04:33:15;;;;;;;10.23;3.63;;;;;;;0.80;91.87;99633.45;1416492;92;21706;-86
2022/01/30 04:35:42;;;;;;;13.47;4.60;;;;;;;0.78;91.84;99634.89;1411793;91;22689;-88
2022/01/30 05:00:02;;;;;;;;;;;;;;;;;;;;;
2022/01/30 05:02:33;;;;;;;13.73;5.30;;;;;;;0.77;90.98;99638.41;1369772;95;22577;-87
2022/01/30 05:09:36;;;;;;;13.50;4.77;;;;;;;0.90;90.39;99666.60;1376057;95;21896;-87
2022/01/30 05:12:03;;;;;;;11.60;4.50;;;;;;;0.91;90.00;99649.19;1375856;94;22180;-82
2022/01/30 05:14:34;;;;;;;11.10;4.40;;;;;;;0.94;89.94;99645.08;1376231;95;21930;-85
2022/01/30 05:16:58;;;;;;;11.00;4.73;;;;;;;0.95;89.83;99647.20;1378273;95;22732;-85
2022/01/30 05:19:26;;;;;;;9.50;4.50;;;;;;;0.98;89.74;99652.20;1378507;95;21729;-86
2022/01/30 05:21:53;;;;;;;11.60;4.90;;;;;;;1.02;89.65;99649.77;1378762;95;22501;-85
2022/01/30 05:24:20;;;;;;;14.93;5.80;;;;;;;1.06;89.32;99653.81;1372761;95;21892;-84
2022/01/30 05:26:47;;;;;;;12.33;5.83;;;;;;;1.08;89.20;99653.25;1373000;95;21984;-85
2022/01/30 05:29:15;;;;;;;13.80;5.40;;;;;;;1.10;89.02;99646.16;1376007;95;22056;-84
2022/01/30 05:31:42;;;;;;;14.50;5.27;;;;;;;1.11;88.88;99642.13;1376113;95;22324;-86
2022/01/30 05:34:09;;;;;;;11.97;5.27;;;;;;;1.13;88.64;99643.34;1378417;95;21921;-85
2022/01/30 05:36:38;;;;;;;10.43;4.50;;;;;;;1.18;88.21;99641.26;1374792;95;21712;-85
2022/01/30 05:39:06;;;;;;;11.30;4.53;;;;;;;1.22;88.08;99638.79;1379811;95;22257;-84
2022/01/30 05:41:33;;;;;;;13.27;5.67;;;;;;;1.22;88.04;99646.61;1370422;95;22859;-84
2022/01/30 05:44:10;;;;;;;17.50;4.80;;;;;;;1.24;88.06;99634.78;1381329;95;22713;-84
2022/01/30 05:46:37;;;;;;;12.73;4.90;;;;;;;1.26;87.94;99641.53;1378766;95;22019;-85
2022/01/30 05:48:59;;;;;;;16.17;5.07;;;;;;;1.25;88.03;99646.87;1383512;93;21980;-85
2022/01/30 05:51:25;;;;;;;13.47;5.30;;;;;;;1.23;87.97;99652.17;1414701;91;21818;-85
2022/01/30 05:53:51;;;;;;;15.37;5.67;;;;;;;1.23;88.00;99652.17;1409957;92;21622;-84
2022/01/30 05:56:17;;;;;;;8.13;4.63;;;;;;;1.23;88.19;99645.66;1429687;92;22287;-86
2022/01/30 05:58:43;;;;;;;18.90;6.30;;;;;;;1.25;88.33;99639.05;1423038;91;21907;-88
2022/01/30 06:01:09;;;;;;;10.70;5.37;;;;;;;1.25;88.26;99627.31;1401844;91;22899;-87
2022/01/30 06:03:35;;;;;;;13.23;5.57;;;;;;;1.24;88.29;99606.94;1422774;91;21732;-86
2022/01/30 06:06:02;;;;;;;19.63;6.10;;;;;;;1.23;88.53;99609.64;1431305;91;21555;-86
2022/01/30 06:08:58;;;;;;;10.77;4.70;;;;;;;1.21;88.63;99596.73;1423638;91;21702;-88
2022/01/30 06:11:15;;;;;;;9.33;5.33;;;;;;;1.19;88.88;99576.45;1409947;92;21721;-89
2022/01/30 06:13:41;;;;;;;11.20;5.10;;;;;;;1.20;88.91;99574.66;1420019;91;21723;-88
2022/01/30 06:16:07;;;;;;;8.83;4.47;;;;;;;1.18;89.12;99579.15;1419801;92;21846;-89
2022/01/30 06:18:36;;;;;;;11.43;6.13;;;;;;;1.18;89.05;99580.01;1417389;92;21627;-89
2022/01/30 06:21:02;;;;;;;13.13;5.30;;;;;;;1.21;89.11;99590.21;1420509;92;21556;-88
2022/01/30 06:23:28;;;;;;;11.17;5.23;;;;;;;1.25;89.10;99586.91;1409042;91;21846;-88
2022/01/30 06:25:56;;;;;;;11.47;5.13;;;;;;;1.27;88.98;99575.44;1417136;91;21654;-90
2022/01/30 06:28:23;;;;;;;9.43;4.73;;;;;;;1.29;88.79;99584.44;1412829;90;22382;-87
2022/01/30 06:30:49;;;;;;;8.47;4.37;;;;;;;1.32;88.64;99575.09;1440648;90;21790;-87
2022/01/30 06:33:16;;;;;;;11.10;4.57;;;;;;;1.37;88.55;99579.98;1426613;90;21812;-85
2022/01/30 06:35:42;;;;;;;13.03;6.30;;;;;;;1.39;88.31;99576.33;1437713;90;21724;-85
2022/01/30 06:38:08;;;;;;;16.83;5.30;;;;;;;1.44;88.20;99566.86;1440574;90;22593;-84
2022/01/30 06:40:34;;;;;;;20.90;5.13;;;;;;;1.46;87.99;99559.77;1443093;90;21464;-85
2022/01/30 06:43:00;;;;;;;8.60;4.80;;;;;;;1.47;87.83;99563.58;1434576;90;21653;-84
2022/01/30 06:45:27;;;;;;;9.97;4.63;;;;;;;1.49;87.73;99563.45;1445822;90;21569;-85
2022/01/30 06:47:53;;;;;;;11.40;5.63;;;;;;;1.51;87.62;99573.31;1427859;90;21728;-85
2022/01/30 06:50:19;;;;;;;11.87;4.50;;;;;;;1.54;87.52;99591.34;1443754;90;21509;-85
2022/01/30 06:52:46;;;;;;;11.17;5.53;;;;;;;1.58;87.37;99585.81;1440956;90;21481;-85
2022/01/30 06:55:12;;;;;;;7.73;4.00;;;;;;;1.58;87.24;99595.38;1429815;90;21713;-85
2022/01/30 06:57:43;;;;;;;10.07;4.50;;;;;;;1.61;87.14;99593.86;1429446;90;21693;-87
2022/01/30 07:00:11;;;;;;;10.13;4.40;;;;;;;1.68;87.14;99587.27;1433741;89;21605;-86
2022/01/30 07:02:37;;;;;;;13.17;5.80;;;;;;;1.74;86.79;99586.81;1441203;90;21822;-86
2022/01/30 07:05:04;;;;;;;8.50;4.80;;;;;;;1.78;86.76;99582.20;1433568;89;21854;-87
2022/01/30 07:07:31;;;;;;;12.40;4.90;;;;;;;1.79;86.53;99577.36;1426723;90;21752;-86
2022/01/30 07:09:57;;;;;;;6.93;4.07;;;;;;;1.85;86.44;99581.30;1415514;91;21879;-86
2022/01/30 07:12:23;;;;;;;11.40;4.77;;;;;;;1.87;86.47;99578.09;1421708;90;21920;-86
2022/01/30 07:14:50;;;;;;;13.57;6.43;;;;;;;1.92;86.50;99569.45;1436590;90;22691;-91
2022/01/30 07:17:16;;;;;;;8.90;4.67;;;;;;;1.96;86.24;99561.77;1434195;89;21645;-88
2022/01/30 07:19:42;;;;;;;13.67;6.90;;;;;;;1.99;86.05;99557.15;1407013;91;21721;-87
2022/01/30 07:22:08;;;;;;;21.63;6.90;;;;;;;2.04;86.17;99556.78;1408732;92;21720;-87
2022/01/30 07:24:34;;;;;;;25.20;14.10;;;;;;;2.08;86.17;99561.33;1422835;92;21605;-85
2022/01/30 07:27:00;;;;;;;14.50;9.13;;;;;;;2.15;86.00;99545.07;1415019;91;21780;-86
2022/01/30 07:29:26;;;;;;;11.90;5.27;;;;;;;2.21;85.66;99545.09;1411748;91;22680;-85
2022/01/30 07:31:52;;;;;;;14.57;5.20;;;;;;;2.26;85.50;99551.63;1424386;91;22347;-85
2022/01/30 07:34:22;;;;;;;8.60;4.40;;;;;;;2.29;85.10;99545.82;1419532;90;21767;-85
2022/01/30 07:36:47;;;;;;;14.33;5.97;;;;;;;2.33;84.78;99542.02;1414221;91;21540;-86
2022/01/30 07:39:16;;;;;;;9.90;4.93;;;;;;;2.37;84.61;99535.15;1400335;91;21779;-84
2022/01/30 07:41:44;;;;;;;9.53;5.63;;;;;;;2.43;83.80;99537.77;1427036;89;21738;-85
2022/01/30 07:44:10;;;;;;;15.37;6.03;;;;;;;2.43;83.80;99537.77;1412316;91;21845;-84
2022/01/30 07:46:40;;;;;;;9.17;4.70;;;;;;;2.44;83.84;99538.94;1429352;89;21848;-84
2022/01/30 07:49:06;;;;;;;11.10;4.20;;;;;;;2.48;83.71;99547.39;1425787;89;21862;-84
2022/01/30 07:51:32;;;;;;;7.60;4.17;;;;;;;2.49;83.24;99545.13;1422776;91;21958;-84
2022/01/30 07:53:58;;;;;;;10.20;5.43;;;;;;;2.52;83.32;99543.59;1428275;91;21839;-82
2022/01/30 07:56:24;;;;;;;10.53;4.60;;;;;;;2.52;83.35;99550.12;1409715;91;21923;-84
2022/01/30 07:58:50;;;;;;;9.87;4.53;;;;;;;2.53;83.04;99533.96;1401921;92;21453;-93
2022/01/30 08:01:16;;;;;;;11.80;5.43;;;;;;;2.55;83.82;99536.81;1409044;92;21482;-92
2022/01/30 08:03:42;;;;;;;16.53;5.33;;;;;;;2.73;85.84;99537.66;1405325;93;21766;-91
2022/01/30 08:06:09;;;;;;;15.17;4.93;;;;;;;2.81;82.45;99523.52;1428284;92;21593;-93
2022/01/30 08:08:35;;;;;;;10.97;5.03;;;;;;;2.81;82.45;99523.52;1409259;93;21919;-89
2022/01/30 08:11:04;;;;;;;7.50;4.00;;;;;;;2.90;83.79;99531.94;1406361;93;21756;-91
2022/01/30 08:13:30;;;;;;;13.23;5.57;;;;;;;3.03;83.61;99503.06;1414063;93;21873;-91
2022/01/30 08:15:56;;;;;;;7.93;4.37;;;;;;;3.12;82.05;99505.77;1411589;90;21501;-93
2022/01/30 08:18:22;;;;;;;9.97;5.80;;;;;;;3.20;81.80;99497.80;1410512;93;21804;-92
2022/01/30 08:20:49;;;;;;;12.90;6.77;;;;;;;3.20;81.80;99497.80;1424341;93;21885;-88
2022/01/30 08:23:18;;;;;;;17.50;7.87;;;;;;;3.29;81.95;99469.59;1400315;93;21866;-92
2022/01/30 08:25:43;;;;;;;23.23;7.83;;;;;;;3.29;81.43;99469.59;1396184;93;23239;-88
2022/01/30 08:28:10;;;;;;;15.00;7.37;;;;;;;3.31;81.00;99468.97;1405435;93;22051;-87
2022/01/30 08:30:36;;;;;;;15.90;7.27;;;;;;;3.31;81.46;99460.67;1403238;93;23483;-87
2022/01/30 08:33:03;;;;;;;13.13;7.27;;;;;;;3.31;81.46;99460.67;1403465;93;22211;-87
2022/01/30 08:35:31;;;;;;;10.57;6.67;;;;;;;3.37;81.48;99475.86;1416458;91;22759;-88
2022/01/30 08:37:59;;;;;;;11.57;6.03;;;;;;;3.45;80.99;99477.83;1428189;91;23114;-88
2022/01/30 08:40:26;;;;;;;7.87;4.43;;;;;;;3.55;81.14;99490.52;1415473;91;22786;-87
2022/01/30 08:42:53;;;;;;;9.73;4.40;;;;;;;3.65;80.45;99495.82;1413210;93;22212;-89
2022/01/30 08:45:20;;;;;;;8.93;4.60;;;;;;;3.77;80.99;99493.98;1415221;91;22301;-88
2022/01/30 08:47:50;;;;;;;9.77;5.23;;;;;;;3.91;80.63;99508.06;1429015;91;22878;-85
2022/01/30 08:50:18;;;;;;;10.53;4.50;;;;;;;3.99;80.23;99505.64;1429658;91;22212;-87
2022/01/30 08:52:45;;;;;;;6.47;4.03;;;;;;;4.06;79.72;99503.36;1439848;90;22201;-87
2022/01/30 08:55:12;;;;;;;5.83;3.30;;;;;;;4.19;79.86;99493.49;1430945;89;24162;-86
2022/01/30 08:57:42;;;;;;;5.30;3.03;;;;;;;4.28;79.60;99494.50;1430722;88;22441;-86
2022/01/30 09:00:13;;;;;;;11.10;5.53;;;;;;;4.37;79.12;99491.09;1434434;88;22118;-85
2022/01/30 09:02:39;;;;;;;7.00;3.40;;;;;;;4.51;79.22;99495.16;1425050;87;22253;-87
2022/01/30 09:05:11;;;;;;;7.50;4.13;;;;;;;4.65;79.11;99483.50;1428276;88;21465;-87
2022/01/30 09:07:38;;;;;;;7.27;3.97;;;;;;;4.82;78.67;99476.48;1432120;88;22243;-86
2022/01/30 09:10:08;;;;;;;24.93;9.97;;;;;;;5.13;75.36;99478.38;1431693;88;21599;-87
2022/01/30 09:12:35;;;;;;;21.00;9.03;;;;;;;5.13;75.36;99478.38;1433372;88;22544;-86
2022/01/30 09:15:10;;;;;;;7.13;3.70;;;;;;;5.33;75.84;99449.06;1437904;88;21415;-87
2022/01/30 09:17:36;;;;;;;7.03;3.13;;;;;;;5.50;75.80;99475.59;1433499;88;21310;-87
2022/01/30 09:20:05;;;;;;;8.80;3.30;;;;;;;5.60;74.88;99481.65;1441887;88;22674;-85
2022/01/30 09:22:32;;;;;;;5.60;3.53;;;;;;;5.70;75.42;99483.80;1410063;88;21327;-87
2022/01/30 09:24:58;;;;;;;4.27;2.90;;;;;;;5.84;75.09;99485.14;1439282;88;22375;-87
2022/01/30 09:27:24;;;;;;;4.70;2.20;;;;;;;5.96;74.59;99481.94;1414409;89;21548;-86
2022/01/30 09:29:50;;;;;;;5.27;2.87;;;;;;;6.08;74.32;99484.73;1395474;92;21623;-85
2022/01/30 09:32:17;;;;;;;7.57;3.90;;;;;;;6.22;73.98;99476.41;1375433;93;21590;-83
2022/01/30 09:34:44;;;;;;;4.50;2.40;;;;;;;6.33;73.51;99485.92;1373490;93;21565;-83
2022/01/30 09:37:10;;;;;;;3.53;1.77;;;;;;;6.48;72.69;99481.84;1396360;92;21556;-83
2022/01/30 09:39:37;;;;;;;8.10;3.00;;;;;;;6.62;72.82;99480.55;1401722;92;22704;-84
2022/01/30 09:42:05;;;;;;;8.30;2.43;;;;;;;6.90;73.24;99477.91;1322026;93;21460;-84
2022/01/30 09:44:39;;;;;;;3.77;2.10;;;;;;;7.18;71.83;99471.63;1342966;91;21392;-84
2022/01/30 09:47:13;;;;;;;2.47;1.40;;;;;;;8.41;67.12;99463.89;1497003;90;21431;-84
2022/01/30 09:49:51;;;;;;;6.93;2.30;;;;;;;9.41;66.75;99444.55;1337511;91;21276;-84
2022/01/30 09:52:19;;;;;;;2.13;1.80;;;;;;;10.10;58.97;99434.43;1425511;89;22411;-85
2022/01/30 09:54:48;;;;;;;4.93;1.60;;;;;;;10.66;58.08;99418.55;1441024;88;21705;-87
2022/01/30 09:57:14;;;;;;;2.87;1.40;;;;;;;11.10;57.19;99416.64;1443426;88;21361;-86
2022/01/30 09:59:46;;;;;;;1.77;1.33;;;;;;;11.24;54.61;99417.21;1411945;89;21494;-86
2022/01/30 10:02:13;;;;;;;5.20;2.07;;;;;;;11.44;52.90;99414.09;1431078;89;21370;-87
2022/01/30 10:04:39;;;;;;;2.67;1.77;;;;;;;11.77;51.84;99411.16;1435275;89;21435;-86
2022/01/30 10:07:13;;;;;;;4.17;1.53;;;;;;;11.62;49.44;99409.29;1448333;89;21422;-86
2022/01/30 10:09:43;;;;;;;4.60;1.30;;;;;;;11.56;48.74;99403.38;1429111;88;21437;-87
2022/01/30 10:12:16;;;;;;;3.00;1.30;;;;;;;11.35;46.30;99408.54;1441460;88;21672;-87
2022/01/30 10:15:06;;;;;;;1.60;0.90;;;;;;;11.28;46.52;99410.58;1440051;88;21481;-86
2022/01/30 10:17:36;;;;;;;2.57;1.37;;;;;;;11.00;47.16;99396.20;1448152;88;21426;-86
2022/01/30 10:20:16;;;;;;;1.02;0.90;;;;;;;11.20;47.56;99397.39;1467679;88;21442;-87
2022/01/30 10:23:08;;;;;;;2.13;0.73;;;;;;;10.99;45.77;99395.86;1465755;88;22065;-85
2022/01/30 10:25:37;;;;;;;1.87;0.80;;;;;;;10.87;47.07;99403.89;1461338;89;22131;-89
2022/01/30 10:28:17;;;;;;;2.17;0.87;;;;;;;10.72;44.93;99399.84;1451496;89;21471;-87
2022/01/30 10:30:53;;;;;;;3.40;0.78;;;;;;;10.69;46.40;99390.42;1463596;88;22366;-89
2022/01/30 10:33:24;;;;;;;1.73;1.00;;;;;;;11.16;46.94;99395.26;1447658;89;21451;-88
2022/01/30 10:35:53;;;;;;;;;;;;;;;11.12;44.48;99400.09;1461353;89;22434;-86
2022/01/30 10:38:27;;;;;;;0.90;0.70;;;;;;;10.38;44.08;99404.44;1463604;89;20306;-90
2022/01/30 10:41:30;;;;;;;1.57;1.40;;;;;;;10.48;43.67;99406.08;1454117;89;21370;-90
2022/01/30 10:44:01;;;;;;;2.70;0.97;;;;;;;10.64;44.56;99413.92;1408269;92;21428;-90
2022/01/30 10:46:40;;;;;;;4.43;2.17;;;;;;;10.63;45.10;99409.64;1397148;91;21310;-91
2022/01/30 10:49:21;;;;;;;1.87;1.07;;;;;;;10.67;44.46;99402.99;1419560;92;21562;-91
2022/01/30 10:51:57;;;;;;;;;;;;;;;10.83;44.56;99394.97;1429146;91;21400;-91
2022/01/30 10:54:29;;;;;;;2.23;1.23;;;;;;;10.92;45.31;99392.28;1412137;91;20282;-90
2022/01/30 10:57:07;;;;;;;3.25;1.47;;;;;;;10.72;43.86;99407.27;1466059;89;22212;-92
2022/01/30 10:59:36;;;;;;;1.37;0.80;;;;;;;10.44;42.76;99406.89;1479897;89;21310;-86
2022/01/30 11:02:19;;;;;;;3.70;1.10;;;;;;;10.12;41.66;99402.52;1449696;89;21340;-90
2022/01/30 11:04:54;;;;;;;3.07;1.50;;;;;;;10.07;41.99;99420.70;1470416;89;21347;-95
2022/01/30 11:07:29;;;;;;;3.27;1.20;;;;;;;10.03;42.58;99400.39;1451653;89;21614;-91
2022/01/30 11:10:11;;;;;;;3.92;1.35;;;;;;;9.91;41.56;99394.64;1464568;89;21354;-94
2022/01/30 11:12:56;;;;;;;;;;;;;;;;;;;;;
2022/01/30 11:15:21;;;;;;;2.50;1.03;;;;;;;9.77;40.98;99373.37;1432282;92;21502;-93
2022/01/30 11:17:44;;;;;;;4.43;1.10;;;;;;;9.70;42.01;99373.22;1431156;92;23237;-95
2022/01/30 11:20:13;;;;;;;2.13;1.00;;;;;;;10.26;41.85;99378.02;1477158;89;21297;-92
2022/01/30 11:22:47;;;;;;;2.57;0.90;;;;;;;10.16;39.82;99366.33;1471512;88;21361;-92
2022/01/30 11:30:32;;;;;;;3.57;1.33;;;;;;;9.90;40.83;99357.32;1372892;89;21718;-88
2022/01/30 11:32:59;;;;;;;6.70;1.43;;;;;;;10.06;40.66;99351.15;1367004;90;21238;-90
2022/01/30 11:35:26;;;;;;;1.43;0.80;;;;;;;9.98;41.22;99359.59;1377060;91;21301;-91
2022/01/30 11:37:53;;;;;;;2.47;0.93;;;;;;;9.90;40.17;99372.36;1378237;91;21324;-92
2022/01/30 11:42:49;;;;;;;4.63;1.40;;;;;;;9.94;39.30;99352.52;1342271;91;21780;-92
2022/01/30 11:45:31;;;;;;;2.13;1.10;;;;;;;10.05;40.29;99346.05;1337587;91;21264;-92
2022/01/30 11:48:03;;;;;;;4.37;1.23;;;;;;;10.13;38.79;99344.20;1329823;93;21368;-92
2022/01/30 11:50:34;;;;;;;2.87;1.00;;;;;;;10.05;38.71;99353.98;1326810;93;21263;-91
2022/01/30 11:56:00;;;;;;;4.23;1.50;;;;;;;10.12;39.15;99361.53;1438460;83;21600;31
2022/01/30 11:58:46;;;;;;;4.00;1.33;;;;;;;10.24;39.73;99338.19;1346743;92;21269;-92
2022/01/30 12:04:02;;;;;;;3.63;1.20;;;;;;;10.43;38.16;99319.80;1384316;84;23460;31
2022/01/30 12:06:32;;;;;;;5.20;1.13;;;;;;;10.47;38.03;99323.73;1361094;89;21313;-90
2022/01/30 12:11:40;;;;;;;5.63;1.10;;;;;;;10.46;37.17;99322.91;1398376;84;21610;31
2022/01/30 12:17:00;;;;;;;4.33;1.30;;;;;;;10.36;37.71;99315.20;1389265;91;21327;-91
2022/01/30 12:19:39;;;;;;;3.00;1.10;;;;;;;10.39;37.75;99306.92;1389650;88;21379;-90
2022/01/30 12:22:28;;;;;;;7.43;2.23;;;;;;;10.42;37.48;99307.58;1361746;91;22253;-82
2022/01/30 12:25:25;;;;;;;4.13;0.97;;;;;;;10.51;37.73;99325.05;1364909;90;21347;-84
2022/01/30 12:27:56;;;;;;;3.07;1.10;;;;;;;10.57;36.93;99333.61;1371260;91;22028;-84
2022/01/30 12:30:35;;;;;;;4.10;1.47;;;;;;;10.61;36.80;99337.54;1368626;90;21377;-82
2022/01/30 12:33:24;;;;;;;2.30;1.40;;;;;;;10.66;37.30;99339.17;1406666;85;21258;-83
2022/01/30 12:35:52;;;;;;;5.43;1.17;;;;;;;10.74;36.95;99335.66;1410773;89;21259;-82
2022/01/30 12:38:34;;;;;;;2.23;1.00;;;;;;;10.77;38.29;99345.39;1464392;86;21245;-82
2022/01/30 12:41:16;;;;;;;2.60;0.90;;;;;;;10.60;38.20;99367.15;1408576;87;23202;-83
2022/01/30 12:43:43;;;;;;;2.37;1.00;;;;;;;10.30;38.11;99379.37;1579166;86;22484;-83
2022/01/30 12:46:11;;;;;;;3.73;1.20;;;;;;;9.89;38.32;99384.72;1435144;86;21267;-82
2022/01/30 12:48:37;;;;;;;2.07;1.07;;;;;;;9.82;38.68;99394.33;1406171;89;21245;-81
2022/01/30 12:51:12;;;;;;;2.90;1.00;;;;;;;9.62;39.55;99393.05;1515839;86;21340;-82
2022/01/30 12:53:37;;;;;;;7.03;1.55;;;;;;;9.62;40.27;99398.33;1389776;88;22247;-82
2022/01/30 12:56:05;;;;;;;2.43;1.20;;;;;;;9.61;41.17;99386.94;1434032;86;21308;-81
2022/01/30 12:58:38;;;;;;;3.00;1.40;;;;;;;9.61;41.45;99395.33;1423107;86;22287;-81